sensor_id;sensor_type;location;lat;lon;timestamp;P1;durP1;ratioP1;P2;durP2;ratioP2
32874;SDS011;40468;42.128;24.750;2023-07-22T00:00:48;11.48;;;3.70;;
32874;SDS011;40468;42.128;24.750;2023-07-22T00:02:20;8.18;;;3.80;;
32874;SDS011;40468;42.128;24.750;2023-07-22T00:03:52;9.85;;;3.75;;
32874;SDS011;40468;42.128;24.750;2023-07-22T00:05:26;9.73;;;4.35;;
32874;SDS011;40468;42.128;24.750;2023-07-22T00:06:58;8.02;;;3.40;;
32874;SDS011;40468;42.128;24.750;2023-07-22T00:08:28;11.45;;;4.25;;
32874;SDS011;40468;42.128;24.750;2023-07-22T00:10:01;11.95;;;4.45;;
32874;SDS011;40468;42.128;24.750;2023-07-22T00:11:33;9.50;;;3.95;;
32874;SDS011;40468;42.128;24.750;2023-07-22T00:13:03;11.20;;;4.20;;
32874;SDS011;40468;42.128;24.750;2023-07-22T00:14:36;13.52;;;4.00;;
32874;SDS011;40468;42.128;24.750;2023-07-22T00:16:08;10.65;;;4.47;;
32874;SDS011;40468;42.128;24.750;2023-07-22T00:17:41;8.83;;;4.07;;
32874;SDS011;40468;42.128;24.750;2023-07-22T00:19:11;8.27;;;3.72;;
32874;SDS011;40468;42.128;24.750;2023-07-22T00:20:45;9.33;;;3.67;;
32874;SDS011;40468;42.128;24.750;2023-07-22T00:22:16;6.43;;;3.92;;
32874;SDS011;40468;42.128;24.750;2023-07-22T00:23:48;8.55;;;4.70;;
32874;SDS011;40468;42.128;24.750;2023-07-22T00:25:19;11.10;;;4.13;;
32874;SDS011;40468;42.128;24.750;2023-07-22T00:28:23;9.50;;;3.90;;
32874;SDS011;40468;42.128;24.750;2023-07-22T00:29:54;7.90;;;3.83;;
32874;SDS011;40468;42.128;24.750;2023-07-22T00:31:25;10.07;;;4.05;;
32874;SDS011;40468;42.128;24.750;2023-07-22T00:32:57;8.88;;;4.03;;
32874;SDS011;40468;42.128;24.750;2023-07-22T00:34:28;7.63;;;3.90;;
32874;SDS011;40468;42.128;24.750;2023-07-22T00:36:01;9.32;;;4.15;;
32874;SDS011;40468;42.128;24.750;2023-07-22T00:37:33;12.55;;;3.78;;
32874;SDS011;40468;42.128;24.750;2023-07-22T00:39:05;10.45;;;3.92;;
32874;SDS011;40468;42.128;24.750;2023-07-22T00:40:37;9.02;;;4.47;;
32874;SDS011;40468;42.128;24.750;2023-07-22T00:42:08;7.50;;;4.30;;
32874;SDS011;40468;42.128;24.750;2023-07-22T00:43:40;7.13;;;4.43;;
32874;SDS011;40468;42.128;24.750;2023-07-22T00:45:10;10.15;;;4.07;;
32874;SDS011;40468;42.128;24.750;2023-07-22T00:46:43;12.70;;;4.35;;
32874;SDS011;40468;42.128;24.750;2023-07-22T00:48:14;9.77;;;4.20;;
32874;SDS011;40468;42.128;24.750;2023-07-22T00:49:47;7.95;;;3.88;;
32874;SDS011;40468;42.128;24.750;2023-07-22T00:51:20;12.93;;;4.28;;
32874;SDS011;40468;42.128;24.750;2023-07-22T00:54:23;6.93;;;3.60;;
32874;SDS011;40468;42.128;24.750;2023-07-22T00:55:55;6.25;;;3.83;;
32874;SDS011;40468;42.128;24.750;2023-07-22T00:57:26;7.05;;;3.60;;
32874;SDS011;40468;42.128;24.750;2023-07-22T00:58:57;10.20;;;3.92;;
32874;SDS011;40468;42.128;24.750;2023-07-22T01:00:29;7.95;;;3.83;;
32874;SDS011;40468;42.128;24.750;2023-07-22T01:02:02;10.57;;;4.22;;
32874;SDS011;40468;42.128;24.750;2023-07-22T01:03:33;9.25;;;4.68;;
32874;SDS011;40468;42.128;24.750;2023-07-22T01:05:05;8.80;;;4.32;;
32874;SDS011;40468;42.128;24.750;2023-07-22T01:06:37;8.43;;;4.07;;
32874;SDS011;40468;42.128;24.750;2023-07-22T01:08:09;11.77;;;4.28;;
32874;SDS011;40468;42.128;24.750;2023-07-22T01:09:40;5.93;;;3.45;;
32874;SDS011;40468;42.128;24.750;2023-07-22T01:11:13;10.18;;;3.90;;
32874;SDS011;40468;42.128;24.750;2023-07-22T01:12:44;13.27;;;4.10;;
32874;SDS011;40468;42.128;24.750;2023-07-22T01:14:16;7.57;;;4.30;;
32874;SDS011;40468;42.128;24.750;2023-07-22T01:15:46;16.40;;;4.60;;
32874;SDS011;40468;42.128;24.750;2023-07-22T01:17:19;6.70;;;3.63;;
32874;SDS011;40468;42.128;24.750;2023-07-22T01:18:50;12.07;;;4.45;;
32874;SDS011;40468;42.128;24.750;2023-07-22T01:20:22;10.85;;;4.30;;
32874;SDS011;40468;42.128;24.750;2023-07-22T01:21:55;4.75;;;3.55;;
32874;SDS011;40468;42.128;24.750;2023-07-22T01:23:30;12.80;;;4.70;;
32874;SDS011;40468;42.128;24.750;2023-07-22T01:26:32;8.75;;;3.58;;
32874;SDS011;40468;42.128;24.750;2023-07-22T01:28:08;6.38;;;4.20;;
32874;SDS011;40468;42.128;24.750;2023-07-22T01:29:40;10.85;;;4.28;;
32874;SDS011;40468;42.128;24.750;2023-07-22T01:31:12;7.32;;;4.03;;
32874;SDS011;40468;42.128;24.750;2023-07-22T01:32:43;7.30;;;4.10;;
32874;SDS011;40468;42.128;24.750;2023-07-22T01:34:15;15.30;;;4.53;;
32874;SDS011;40468;42.128;24.750;2023-07-22T01:35:45;6.68;;;3.90;;
32874;SDS011;40468;42.128;24.750;2023-07-22T01:37:17;20.95;;;4.68;;
32874;SDS011;40468;42.128;24.750;2023-07-22T01:38:50;9.55;;;3.42;;
32874;SDS011;40468;42.128;24.750;2023-07-22T01:40:24;7.47;;;4.28;;
32874;SDS011;40468;42.128;24.750;2023-07-22T01:41:55;7.95;;;4.25;;
32874;SDS011;40468;42.128;24.750;2023-07-22T01:43:27;10.50;;;3.83;;
32874;SDS011;40468;42.128;24.750;2023-07-22T01:44:58;6.57;;;4.20;;
32874;SDS011;40468;42.128;24.750;2023-07-22T01:46:30;9.05;;;3.95;;
32874;SDS011;40468;42.128;24.750;2023-07-22T01:48:01;8.85;;;3.95;;
32874;SDS011;40468;42.128;24.750;2023-07-22T01:49:33;7.03;;;4.40;;
32874;SDS011;40468;42.128;24.750;2023-07-22T01:51:04;14.48;;;4.30;;
32874;SDS011;40468;42.128;24.750;2023-07-22T01:52:35;7.35;;;4.25;;
32874;SDS011;40468;42.128;24.750;2023-07-22T01:54:09;7.70;;;3.90;;
32874;SDS011;40468;42.128;24.750;2023-07-22T01:55:41;8.95;;;3.65;;
32874;SDS011;40468;42.128;24.750;2023-07-22T01:57:12;8.15;;;4.05;;
32874;SDS011;40468;42.128;24.750;2023-07-22T01:58:43;7.88;;;3.80;;
32874;SDS011;40468;42.128;24.750;2023-07-22T02:00:14;8.00;;;4.15;;
32874;SDS011;40468;42.128;24.750;2023-07-22T02:01:46;10.90;;;3.97;;
32874;SDS011;40468;42.128;24.750;2023-07-22T02:03:18;6.53;;;3.50;;
32874;SDS011;40468;42.128;24.750;2023-07-22T02:04:50;10.13;;;4.65;;
32874;SDS011;40468;42.128;24.750;2023-07-22T02:06:22;7.53;;;3.95;;
32874;SDS011;40468;42.128;24.750;2023-07-22T02:07:53;8.88;;;4.05;;
32874;SDS011;40468;42.128;24.750;2023-07-22T02:09:26;7.65;;;4.30;;
32874;SDS011;40468;42.128;24.750;2023-07-22T02:12:30;7.38;;;3.75;;
32874;SDS011;40468;42.128;24.750;2023-07-22T02:14:02;7.75;;;4.68;;
32874;SDS011;40468;42.128;24.750;2023-07-22T02:15:36;10.10;;;3.97;;
32874;SDS011;40468;42.128;24.750;2023-07-22T02:17:08;8.20;;;4.03;;
32874;SDS011;40468;42.128;24.750;2023-07-22T02:18:39;8.05;;;3.67;;
32874;SDS011;40468;42.128;24.750;2023-07-22T02:20:12;12.47;;;4.70;;
32874;SDS011;40468;42.128;24.750;2023-07-22T02:21:42;7.55;;;4.07;;
32874;SDS011;40468;42.128;24.750;2023-07-22T02:23:14;10.05;;;4.38;;
32874;SDS011;40468;42.128;24.750;2023-07-22T02:24:46;8.73;;;4.38;;
32874;SDS011;40468;42.128;24.750;2023-07-22T02:26:18;9.02;;;4.18;;
32874;SDS011;40468;42.128;24.750;2023-07-22T02:27:49;10.45;;;4.60;;
32874;SDS011;40468;42.128;24.750;2023-07-22T02:29:21;8.75;;;4.40;;
32874;SDS011;40468;42.128;24.750;2023-07-22T02:30:52;6.07;;;3.97;;
32874;SDS011;40468;42.128;24.750;2023-07-22T02:32:24;8.30;;;4.20;;
32874;SDS011;40468;42.128;24.750;2023-07-22T02:33:55;7.38;;;4.18;;
32874;SDS011;40468;42.128;24.750;2023-07-22T02:35:27;9.80;;;4.95;;
32874;SDS011;40468;42.128;24.750;2023-07-22T02:36:57;12.20;;;4.35;;
32874;SDS011;40468;42.128;24.750;2023-07-22T02:38:29;6.78;;;4.13;;
32874;SDS011;40468;42.128;24.750;2023-07-22T02:40:01;9.40;;;4.90;;
32874;SDS011;40468;42.128;24.750;2023-07-22T02:41:37;8.38;;;4.63;;
32874;SDS011;40468;42.128;24.750;2023-07-22T02:43:08;8.77;;;4.57;;
32874;SDS011;40468;42.128;24.750;2023-07-22T02:44:40;6.60;;;4.25;;
32874;SDS011;40468;42.128;24.750;2023-07-22T02:46:11;9.43;;;4.35;;
32874;SDS011;40468;42.128;24.750;2023-07-22T02:47:43;7.82;;;4.07;;
32874;SDS011;40468;42.128;24.750;2023-07-22T02:49:13;9.40;;;4.90;;
32874;SDS011;40468;42.128;24.750;2023-07-22T02:50:45;11.60;;;5.70;;
32874;SDS011;40468;42.128;24.750;2023-07-22T02:52:16;8.45;;;4.13;;
32874;SDS011;40468;42.128;24.750;2023-07-22T02:53:48;10.27;;;5.10;;
32874;SDS011;40468;42.128;24.750;2023-07-22T02:55:21;9.27;;;4.95;;
32874;SDS011;40468;42.128;24.750;2023-07-22T02:56:53;11.13;;;5.05;;
32874;SDS011;40468;42.128;24.750;2023-07-22T02:58:24;8.80;;;4.72;;
32874;SDS011;40468;42.128;24.750;2023-07-22T02:59:56;9.27;;;4.90;;
32874;SDS011;40468;42.128;24.750;2023-07-22T03:01:27;10.68;;;4.38;;
32874;SDS011;40468;42.128;24.750;2023-07-22T03:02:59;8.20;;;4.65;;
32874;SDS011;40468;42.128;24.750;2023-07-22T03:04:30;12.68;;;5.43;;
32874;SDS011;40468;42.128;24.750;2023-07-22T03:06:02;8.68;;;4.97;;
32874;SDS011;40468;42.128;24.750;2023-07-22T03:07:33;8.77;;;4.22;;
32874;SDS011;40468;42.128;24.750;2023-07-22T03:09:05;13.02;;;5.43;;
32874;SDS011;40468;42.128;24.750;2023-07-22T03:10:38;11.38;;;5.10;;
32874;SDS011;40468;42.128;24.750;2023-07-22T03:12:10;9.70;;;4.50;;
32874;SDS011;40468;42.128;24.750;2023-07-22T03:13:40;7.45;;;4.32;;
32874;SDS011;40468;42.128;24.750;2023-07-22T03:15:12;12.00;;;4.45;;
32874;SDS011;40468;42.128;24.750;2023-07-22T03:16:43;16.85;;;5.07;;
32874;SDS011;40468;42.128;24.750;2023-07-22T03:18:15;11.60;;;4.10;;
32874;SDS011;40468;42.128;24.750;2023-07-22T03:19:46;9.75;;;4.57;;
32874;SDS011;40468;42.128;24.750;2023-07-22T03:21:18;5.97;;;4.55;;
32874;SDS011;40468;42.128;24.750;2023-07-22T03:22:49;13.75;;;4.70;;
32874;SDS011;40468;42.128;24.750;2023-07-22T03:24:20;12.23;;;5.43;;
32874;SDS011;40468;42.128;24.750;2023-07-22T03:25:54;8.57;;;5.03;;
32874;SDS011;40468;42.128;24.750;2023-07-22T03:27:24;9.60;;;4.60;;
32874;SDS011;40468;42.128;24.750;2023-07-22T03:28:57;11.00;;;5.03;;
32874;SDS011;40468;42.128;24.750;2023-07-22T03:30:29;12.50;;;4.95;;
32874;SDS011;40468;42.128;24.750;2023-07-22T03:32:00;15.27;;;5.22;;
32874;SDS011;40468;42.128;24.750;2023-07-22T03:33:31;9.07;;;4.50;;
32874;SDS011;40468;42.128;24.750;2023-07-22T03:35:02;13.82;;;5.22;;
32874;SDS011;40468;42.128;24.750;2023-07-22T03:36:34;10.07;;;4.95;;
32874;SDS011;40468;42.128;24.750;2023-07-22T03:38:06;13.05;;;5.20;;
32874;SDS011;40468;42.128;24.750;2023-07-22T03:39:37;11.93;;;4.68;;
32874;SDS011;40468;42.128;24.750;2023-07-22T03:41:11;8.52;;;4.95;;
32874;SDS011;40468;42.128;24.750;2023-07-22T03:44:13;11.95;;;5.18;;
32874;SDS011;40468;42.128;24.750;2023-07-22T03:45:45;16.23;;;4.95;;
32874;SDS011;40468;42.128;24.750;2023-07-22T03:47:16;13.48;;;5.05;;
32874;SDS011;40468;42.128;24.750;2023-07-22T03:48:48;7.65;;;4.53;;
32874;SDS011;40468;42.128;24.750;2023-07-22T03:50:19;12.35;;;4.85;;
32874;SDS011;40468;42.128;24.750;2023-07-22T03:51:51;11.98;;;5.15;;
32874;SDS011;40468;42.128;24.750;2023-07-22T03:53:21;11.77;;;4.20;;
32874;SDS011;40468;42.128;24.750;2023-07-22T03:54:53;11.93;;;4.75;;
32874;SDS011;40468;42.128;24.750;2023-07-22T03:56:25;7.22;;;4.03;;
32874;SDS011;40468;42.128;24.750;2023-07-22T03:57:57;8.60;;;4.80;;
32874;SDS011;40468;42.128;24.750;2023-07-22T03:59:28;7.47;;;4.30;;
32874;SDS011;40468;42.128;24.750;2023-07-22T04:01:00;11.05;;;5.50;;
32874;SDS011;40468;42.128;24.750;2023-07-22T04:02:31;10.18;;;5.18;;
32874;SDS011;40468;42.128;24.750;2023-07-22T04:04:03;10.32;;;5.10;;
32874;SDS011;40468;42.128;24.750;2023-07-22T04:05:34;8.50;;;5.32;;
32874;SDS011;40468;42.128;24.750;2023-07-22T04:07:05;8.75;;;4.53;;
32874;SDS011;40468;42.128;24.750;2023-07-22T04:08:38;12.50;;;5.30;;
32874;SDS011;40468;42.128;24.750;2023-07-22T04:10:10;11.43;;;5.20;;
32874;SDS011;40468;42.128;24.750;2023-07-22T04:11:42;9.27;;;5.13;;
32874;SDS011;40468;42.128;24.750;2023-07-22T04:14:45;14.55;;;4.97;;
32874;SDS011;40468;42.128;24.750;2023-07-22T04:16:16;11.85;;;5.25;;
32874;SDS011;40468;42.128;24.750;2023-07-22T04:17:48;10.30;;;4.85;;
32874;SDS011;40468;42.128;24.750;2023-07-22T04:19:19;22.77;;;5.78;;
32874;SDS011;40468;42.128;24.750;2023-07-22T04:20:55;11.98;;;5.47;;
32874;SDS011;40468;42.128;24.750;2023-07-22T04:22:26;10.60;;;4.85;;
32874;SDS011;40468;42.128;24.750;2023-07-22T04:23:58;14.90;;;5.32;;
32874;SDS011;40468;42.128;24.750;2023-07-22T04:25:29;16.30;;;5.90;;
32874;SDS011;40468;42.128;24.750;2023-07-22T04:27:03;12.68;;;5.30;;
32874;SDS011;40468;42.128;24.750;2023-07-22T04:28:34;12.10;;;5.15;;
32874;SDS011;40468;42.128;24.750;2023-07-22T04:30:06;10.43;;;5.13;;
32874;SDS011;40468;42.128;24.750;2023-07-22T04:31:39;9.77;;;5.20;;
32874;SDS011;40468;42.128;24.750;2023-07-22T04:33:10;10.38;;;5.40;;
32874;SDS011;40468;42.128;24.750;2023-07-22T04:34:42;10.63;;;5.63;;
32874;SDS011;40468;42.128;24.750;2023-07-22T04:36:12;18.20;;;5.85;;
32874;SDS011;40468;42.128;24.750;2023-07-22T04:37:44;9.68;;;5.82;;
32874;SDS011;40468;42.128;24.750;2023-07-22T04:39:15;18.10;;;5.63;;
32874;SDS011;40468;42.128;24.750;2023-07-22T04:40:47;14.73;;;5.45;;
32874;SDS011;40468;42.128;24.750;2023-07-22T04:42:20;10.25;;;5.97;;
32874;SDS011;40468;42.128;24.750;2023-07-22T04:43:51;15.80;;;5.93;;
32874;SDS011;40468;42.128;24.750;2023-07-22T04:45:23;15.95;;;6.30;;
32874;SDS011;40468;42.128;24.750;2023-07-22T04:46:55;15.52;;;7.50;;
32874;SDS011;40468;42.128;24.750;2023-07-22T04:48:26;11.23;;;6.03;;
32874;SDS011;40468;42.128;24.750;2023-07-22T04:49:58;11.80;;;6.22;;
32874;SDS011;40468;42.128;24.750;2023-07-22T04:51:30;16.25;;;6.70;;
32874;SDS011;40468;42.128;24.750;2023-07-22T04:53:02;12.23;;;7.00;;
32874;SDS011;40468;42.128;24.750;2023-07-22T04:54:33;15.35;;;6.40;;
32874;SDS011;40468;42.128;24.750;2023-07-22T04:56:04;20.35;;;6.40;;
32874;SDS011;40468;42.128;24.750;2023-07-22T04:57:38;20.23;;;6.43;;
32874;SDS011;40468;42.128;24.750;2023-07-22T04:59:11;17.40;;;6.07;;
32874;SDS011;40468;42.128;24.750;2023-07-22T05:00:44;16.58;;;6.13;;
32874;SDS011;40468;42.128;24.750;2023-07-22T05:02:15;18.88;;;6.22;;
32874;SDS011;40468;42.128;24.750;2023-07-22T05:03:47;19.67;;;6.50;;
32874;SDS011;40468;42.128;24.750;2023-07-22T05:05:17;11.02;;;6.10;;
32874;SDS011;40468;42.128;24.750;2023-07-22T05:06:49;16.75;;;6.85;;
32874;SDS011;40468;42.128;24.750;2023-07-22T05:08:21;15.73;;;6.43;;
32874;SDS011;40468;42.128;24.750;2023-07-22T05:09:52;12.68;;;5.88;;
32874;SDS011;40468;42.128;24.750;2023-07-22T05:11:24;14.25;;;6.15;;
32874;SDS011;40468;42.128;24.750;2023-07-22T05:12:57;14.20;;;6.30;;
32874;SDS011;40468;42.128;24.750;2023-07-22T05:14:28;14.00;;;6.50;;
32874;SDS011;40468;42.128;24.750;2023-07-22T05:16:00;11.35;;;5.78;;
32874;SDS011;40468;42.128;24.750;2023-07-22T05:17:31;12.18;;;6.40;;
32874;SDS011;40468;42.128;24.750;2023-07-22T05:19:03;11.10;;;5.80;;
32874;SDS011;40468;42.128;24.750;2023-07-22T05:20:35;13.10;;;5.90;;
32874;SDS011;40468;42.128;24.750;2023-07-22T05:22:09;10.38;;;5.60;;
32874;SDS011;40468;42.128;24.750;2023-07-22T05:23:40;11.50;;;6.18;;
32874;SDS011;40468;42.128;24.750;2023-07-22T05:25:11;14.48;;;6.28;;
32874;SDS011;40468;42.128;24.750;2023-07-22T05:26:42;15.65;;;6.32;;
32874;SDS011;40468;42.128;24.750;2023-07-22T05:28:15;12.82;;;6.07;;
32874;SDS011;40468;42.128;24.750;2023-07-22T05:29:46;11.63;;;6.07;;
32874;SDS011;40468;42.128;24.750;2023-07-22T05:31:18;10.93;;;5.88;;
32874;SDS011;40468;42.128;24.750;2023-07-22T05:32:51;8.73;;;6.00;;
32874;SDS011;40468;42.128;24.750;2023-07-22T05:34:23;14.80;;;6.68;;
32874;SDS011;40468;42.128;24.750;2023-07-22T05:35:54;11.93;;;6.00;;
32874;SDS011;40468;42.128;24.750;2023-07-22T05:37:25;16.13;;;6.53;;
32874;SDS011;40468;42.128;24.750;2023-07-22T05:38:56;14.60;;;6.30;;
32874;SDS011;40468;42.128;24.750;2023-07-22T05:40:28;9.80;;;6.20;;
32874;SDS011;40468;42.128;24.750;2023-07-22T05:42:00;11.00;;;6.03;;
32874;SDS011;40468;42.128;24.750;2023-07-22T05:43:33;13.02;;;6.20;;
32874;SDS011;40468;42.128;24.750;2023-07-22T05:46:36;14.38;;;6.40;;
32874;SDS011;40468;42.128;24.750;2023-07-22T05:48:08;13.33;;;6.47;;
32874;SDS011;40468;42.128;24.750;2023-07-22T05:49:39;14.52;;;6.32;;
32874;SDS011;40468;42.128;24.750;2023-07-22T05:51:11;12.70;;;5.80;;
32874;SDS011;40468;42.128;24.750;2023-07-22T05:52:44;12.63;;;5.40;;
32874;SDS011;40468;42.128;24.750;2023-07-22T05:54:16;13.73;;;6.10;;
32874;SDS011;40468;42.128;24.750;2023-07-22T05:55:48;14.85;;;6.75;;
32874;SDS011;40468;42.128;24.750;2023-07-22T05:57:20;14.23;;;6.40;;
32874;SDS011;40468;42.128;24.750;2023-07-22T05:58:52;15.48;;;6.18;;
32874;SDS011;40468;42.128;24.750;2023-07-22T06:00:24;16.88;;;5.78;;
32874;SDS011;40468;42.128;24.750;2023-07-22T06:01:56;14.02;;;6.10;;
32874;SDS011;40468;42.128;24.750;2023-07-22T06:03:27;12.27;;;6.35;;
32874;SDS011;40468;42.128;24.750;2023-07-22T06:04:59;14.68;;;6.28;;
32874;SDS011;40468;42.128;24.750;2023-07-22T06:06:29;15.80;;;6.80;;
32874;SDS011;40468;42.128;24.750;2023-07-22T06:08:01;13.38;;;5.95;;
32874;SDS011;40468;42.128;24.750;2023-07-22T06:09:33;15.52;;;7.10;;
32874;SDS011;40468;42.128;24.750;2023-07-22T06:11:05;16.13;;;6.22;;
32874;SDS011;40468;42.128;24.750;2023-07-22T06:12:36;14.55;;;6.30;;
32874;SDS011;40468;42.128;24.750;2023-07-22T06:14:10;15.43;;;6.40;;
32874;SDS011;40468;42.128;24.750;2023-07-22T06:15:40;16.23;;;6.07;;
32874;SDS011;40468;42.128;24.750;2023-07-22T06:17:12;11.00;;;6.30;;
32874;SDS011;40468;42.128;24.750;2023-07-22T06:18:43;11.55;;;6.15;;
32874;SDS011;40468;42.128;24.750;2023-07-22T06:20:15;12.77;;;6.75;;
32874;SDS011;40468;42.128;24.750;2023-07-22T06:21:46;16.70;;;7.07;;
32874;SDS011;40468;42.128;24.750;2023-07-22T06:23:17;10.30;;;6.00;;
32874;SDS011;40468;42.128;24.750;2023-07-22T06:24:48;8.05;;;5.70;;
32874;SDS011;40468;42.128;24.750;2023-07-22T06:26:20;21.55;;;6.72;;
32874;SDS011;40468;42.128;24.750;2023-07-22T06:27:51;12.63;;;6.65;;
32874;SDS011;40468;42.128;24.750;2023-07-22T06:29:25;14.00;;;6.30;;
32874;SDS011;40468;42.128;24.750;2023-07-22T06:30:56;11.57;;;6.53;;
32874;SDS011;40468;42.128;24.750;2023-07-22T06:32:29;10.35;;;6.28;;
32874;SDS011;40468;42.128;24.750;2023-07-22T06:34:00;12.93;;;6.57;;
32874;SDS011;40468;42.128;24.750;2023-07-22T06:35:31;11.55;;;5.70;;
32874;SDS011;40468;42.128;24.750;2023-07-22T06:37:02;19.65;;;6.13;;
32874;SDS011;40468;42.128;24.750;2023-07-22T06:38:34;16.08;;;6.32;;
32874;SDS011;40468;42.128;24.750;2023-07-22T06:40:06;14.48;;;6.40;;
32874;SDS011;40468;42.128;24.750;2023-07-22T06:41:39;10.77;;;6.70;;
32874;SDS011;40468;42.128;24.750;2023-07-22T06:43:09;9.68;;;5.75;;
32874;SDS011;40468;42.128;24.750;2023-07-22T06:44:43;13.63;;;6.25;;
32874;SDS011;40468;42.128;24.750;2023-07-22T06:46:14;12.52;;;5.97;;
32874;SDS011;40468;42.128;24.750;2023-07-22T06:47:46;11.00;;;6.00;;
32874;SDS011;40468;42.128;24.750;2023-07-22T06:49:17;18.17;;;6.38;;
32874;SDS011;40468;42.128;24.750;2023-07-22T06:50:48;13.65;;;6.38;;
32874;SDS011;40468;42.128;24.750;2023-07-22T06:52:21;12.03;;;6.80;;
32874;SDS011;40468;42.128;24.750;2023-07-22T06:53:51;14.60;;;6.15;;
32874;SDS011;40468;42.128;24.750;2023-07-22T06:55:23;13.98;;;5.88;;
32874;SDS011;40468;42.128;24.750;2023-07-22T06:56:54;13.18;;;6.25;;
32874;SDS011;40468;42.128;24.750;2023-07-22T06:58:26;11.15;;;6.22;;
32874;SDS011;40468;42.128;24.750;2023-07-22T06:59:59;10.23;;;6.88;;
32874;SDS011;40468;42.128;24.750;2023-07-22T07:01:30;9.68;;;5.78;;
32874;SDS011;40468;42.128;24.750;2023-07-22T07:03:01;15.27;;;6.25;;
32874;SDS011;40468;42.128;24.750;2023-07-22T07:04:33;13.48;;;6.45;;
32874;SDS011;40468;42.128;24.750;2023-07-22T07:06:04;14.63;;;6.18;;
32874;SDS011;40468;42.128;24.750;2023-07-22T07:07:36;19.75;;;6.85;;
32874;SDS011;40468;42.128;24.750;2023-07-22T07:09:07;12.73;;;6.00;;
32874;SDS011;40468;42.128;24.750;2023-07-22T07:10:38;13.27;;;6.60;;
32874;SDS011;40468;42.128;24.750;2023-07-22T07:12:09;11.05;;;6.45;;
32874;SDS011;40468;42.128;24.750;2023-07-22T07:13:41;19.23;;;6.17;;
32874;SDS011;40468;42.128;24.750;2023-07-22T07:15:14;14.88;;;6.47;;
32874;SDS011;40468;42.128;24.750;2023-07-22T07:18:16;13.02;;;6.25;;
32874;SDS011;40468;42.128;24.750;2023-07-22T07:19:48;11.25;;;6.18;;
32874;SDS011;40468;42.128;24.750;2023-07-22T07:21:19;12.93;;;5.80;;
32874;SDS011;40468;42.128;24.750;2023-07-22T07:22:51;13.63;;;5.95;;
32874;SDS011;40468;42.128;24.750;2023-07-22T07:24:22;15.45;;;6.15;;
32874;SDS011;40468;42.128;24.750;2023-07-22T07:25:53;15.02;;;6.72;;
32874;SDS011;40468;42.128;24.750;2023-07-22T07:27:24;12.38;;;6.15;;
32874;SDS011;40468;42.128;24.750;2023-07-22T07:28:56;13.07;;;6.22;;
32874;SDS011;40468;42.128;24.750;2023-07-22T07:30:28;11.15;;;6.20;;
32874;SDS011;40468;42.128;24.750;2023-07-22T07:33:31;14.35;;;6.53;;
32874;SDS011;40468;42.128;24.750;2023-07-22T07:35:03;9.05;;;6.32;;
32874;SDS011;40468;42.128;24.750;2023-07-22T07:36:34;11.48;;;6.07;;
32874;SDS011;40468;42.128;24.750;2023-07-22T07:38:06;12.50;;;6.30;;
32874;SDS011;40468;42.128;24.750;2023-07-22T07:39:37;18.13;;;6.32;;
32874;SDS011;40468;42.128;24.750;2023-07-22T07:41:09;10.88;;;5.80;;
32874;SDS011;40468;42.128;24.750;2023-07-22T07:42:41;15.50;;;6.60;;
32874;SDS011;40468;42.128;24.750;2023-07-22T07:44:13;15.40;;;5.78;;
32874;SDS011;40468;42.128;24.750;2023-07-22T07:45:46;17.38;;;7.28;;
32874;SDS011;40468;42.128;24.750;2023-07-22T07:47:17;15.27;;;5.83;;
32874;SDS011;40468;42.128;24.750;2023-07-22T07:48:50;13.40;;;6.43;;
32874;SDS011;40468;42.128;24.750;2023-07-22T07:50:21;15.30;;;6.55;;
32874;SDS011;40468;42.128;24.750;2023-07-22T07:51:53;9.77;;;5.70;;
32874;SDS011;40468;42.128;24.750;2023-07-22T07:53:24;13.32;;;5.97;;
32874;SDS011;40468;42.128;24.750;2023-07-22T07:54:56;15.15;;;6.47;;
32874;SDS011;40468;42.128;24.750;2023-07-22T07:56:27;11.18;;;6.28;;
32874;SDS011;40468;42.128;24.750;2023-07-22T07:57:59;14.77;;;7.50;;
32874;SDS011;40468;42.128;24.750;2023-07-22T07:59:30;16.60;;;6.93;;
32874;SDS011;40468;42.128;24.750;2023-07-22T08:01:03;10.85;;;6.15;;
32874;SDS011;40468;42.128;24.750;2023-07-22T08:02:34;11.00;;;6.25;;
32874;SDS011;40468;42.128;24.750;2023-07-22T08:04:06;14.00;;;6.32;;
32874;SDS011;40468;42.128;24.750;2023-07-22T08:05:37;19.13;;;6.70;;
32874;SDS011;40468;42.128;24.750;2023-07-22T08:07:11;14.32;;;6.95;;
32874;SDS011;40468;42.128;24.750;2023-07-22T08:08:47;21.95;;;6.97;;
32874;SDS011;40468;42.128;24.750;2023-07-22T08:10:17;16.48;;;6.63;;
32874;SDS011;40468;42.128;24.750;2023-07-22T08:11:50;16.48;;;7.00;;
32874;SDS011;40468;42.128;24.750;2023-07-22T08:13:20;14.15;;;6.60;;
32874;SDS011;40468;42.128;24.750;2023-07-22T08:14:52;11.50;;;6.55;;
32874;SDS011;40468;42.128;24.750;2023-07-22T08:16:24;11.30;;;6.43;;
32874;SDS011;40468;42.128;24.750;2023-07-22T08:19:27;14.52;;;6.03;;
32874;SDS011;40468;42.128;24.750;2023-07-22T08:20:59;17.80;;;7.82;;
32874;SDS011;40468;42.128;24.750;2023-07-22T08:22:30;10.45;;;6.15;;
32874;SDS011;40468;42.128;24.750;2023-07-22T08:24:02;18.50;;;6.80;;
32874;SDS011;40468;42.128;24.750;2023-07-22T08:25:33;18.20;;;6.55;;
32874;SDS011;40468;42.128;24.750;2023-07-22T08:27:05;16.08;;;6.82;;
32874;SDS011;40468;42.128;24.750;2023-07-22T08:28:37;14.07;;;7.22;;
32874;SDS011;40468;42.128;24.750;2023-07-22T08:30:08;15.82;;;7.40;;
32874;SDS011;40468;42.128;24.750;2023-07-22T08:31:41;10.38;;;5.65;;
32874;SDS011;40468;42.128;24.750;2023-07-22T08:33:13;9.43;;;6.50;;
32874;SDS011;40468;42.128;24.750;2023-07-22T08:34:46;14.65;;;6.63;;
32874;SDS011;40468;42.128;24.750;2023-07-22T08:36:17;19.98;;;6.85;;
32874;SDS011;40468;42.128;24.750;2023-07-22T08:37:48;13.00;;;5.88;;
32874;SDS011;40468;42.128;24.750;2023-07-22T08:39:19;14.75;;;6.25;;
32874;SDS011;40468;42.128;24.750;2023-07-22T08:40:51;12.57;;;6.15;;
32874;SDS011;40468;42.128;24.750;2023-07-22T08:42:22;14.32;;;6.45;;
32874;SDS011;40468;42.128;24.750;2023-07-22T08:43:55;13.95;;;7.05;;
32874;SDS011;40468;42.128;24.750;2023-07-22T08:45:29;14.85;;;5.95;;
32874;SDS011;40468;42.128;24.750;2023-07-22T08:47:06;13.00;;;6.63;;
32874;SDS011;40468;42.128;24.750;2023-07-22T08:48:46;10.00;;;5.68;;
32874;SDS011;40468;42.128;24.750;2023-07-22T08:50:20;12.68;;;5.93;;
32874;SDS011;40468;42.128;24.750;2023-07-22T08:51:54;16.45;;;6.10;;
32874;SDS011;40468;42.128;24.750;2023-07-22T08:53:26;15.23;;;6.03;;
32874;SDS011;40468;42.128;24.750;2023-07-22T08:54:58;14.00;;;6.97;;
32874;SDS011;40468;42.128;24.750;2023-07-22T08:56:30;20.02;;;6.10;;
32874;SDS011;40468;42.128;24.750;2023-07-22T08:58:02;14.77;;;6.93;;
32874;SDS011;40468;42.128;24.750;2023-07-22T08:59:34;12.80;;;6.53;;
32874;SDS011;40468;42.128;24.750;2023-07-22T09:01:07;14.73;;;6.47;;
32874;SDS011;40468;42.128;24.750;2023-07-22T09:02:40;17.95;;;6.45;;
32874;SDS011;40468;42.128;24.750;2023-07-22T09:04:13;10.73;;;6.00;;
32874;SDS011;40468;42.128;24.750;2023-07-22T09:05:44;14.93;;;6.55;;
32874;SDS011;40468;42.128;24.750;2023-07-22T09:07:16;11.60;;;6.27;;
32874;SDS011;40468;42.128;24.750;2023-07-22T09:08:48;11.10;;;6.55;;
32874;SDS011;40468;42.128;24.750;2023-07-22T09:10:21;15.70;;;6.45;;
32874;SDS011;40468;42.128;24.750;2023-07-22T09:11:53;15.07;;;6.03;;
32874;SDS011;40468;42.128;24.750;2023-07-22T09:13:25;18.42;;;6.13;;
32874;SDS011;40468;42.128;24.750;2023-07-22T09:14:57;11.10;;;6.22;;